Airfield :
LOGIN :

Register | Disclaimer

   EN    FR    IT 

 










Legend :    VFR   Marginal VFR   IFR   Intensive IFR   Very Intensive IFR
Visi :
Ceiling :
>= 8 km
>= 3000ft
5 to 8 km
1000 to 3000 ft
1500m to 5 km
500 to 1000 ft
800 to 1500m
200 to 500 ft
< 800m
< 200 ft
Symbols :   Thunderstorms  Fog  Heavy snow  Heavy precipitations  Wind > 20 kt
SIGMETs :     Misc.  Thunderstorms  Icing  Turbulence  Mountain Waves  Volcanic Ashes







- Airport Elevation : 257 ft
- IATA code : MAN
- Download approach charts


EGCC - Manchester

CURRENT METAR :
  • 221750Z AUTO 28005KT 240V310 9999 NCD 23/16 Q1016 NOSIG

EXPIRED METARs :
  • 221720Z AUTO VRB04KT 9999 NCD 23/16 Q1016 NOSIG
  • 221650Z AUTO 30005KT 260V340 9999 SCT022 22/16 Q1016 NOSIG
  • 221620Z AUTO 32007KT 270V350 9999 BKN021 22/16 Q1016
  • 221550Z AUTO 33006KT 290V020 9999 BKN020 22/16 Q1016 NOSIG
  • 221520Z AUTO 32005KT 280V010 9999 BKN019 OVC024 21/16 Q1016 NOSIG

TAF TAF EGCC
Valid from the 22 at 18:00 until the 24 at 00:00 UTC


221703Z 2218/2324 31007KT 9999 FEW015 SCT030
TEMPO 2300/2309 6000 BKN012
PROB40
TEMPO 2303/2309 4000 BR BKN005
TEMPO 2312/2321 6000 SHRA
PROB30
TEMPO 2321/2324 7000
ATIS : +44 161 499 2324
No reported NOTAMs for that airfield.



MET'MAP, your aeronautical weather chart ! - Copyright ORBIFLY December 2007 - Disclaimer

ORBIFLY MET'MAP TEAM :

Programming & Development : Alexandra Zaïnal
Concept & Development : Baudouin d'Aumeries
Co-Development & Prog : Marc-Olivier Méhu
Technical & hardware support : Manuel Goepfert

Contact : metmap@orbifly.com




SOURCES & CREDITS :

   NOAA